createdAt,value
2019-04-28T00:00:08.173Z,0.00
2019-04-28T00:01:08.376Z,0.00
2019-04-28T00:02:08.582Z,0.00
2019-04-28T00:03:10.757Z,0.00
2019-04-28T00:04:09.011Z,0.00
2019-04-28T00:05:09.260Z,0.00
2019-04-28T00:06:11.044Z,0.00
2019-04-28T00:07:11.795Z,0.00
2019-04-28T00:08:10.894Z,0.00
2019-04-28T00:09:11.484Z,0.00
2019-04-28T00:10:11.195Z,0.00
2019-04-28T00:11:11.719Z,0.00
2019-04-28T00:12:11.465Z,0.00
2019-04-28T00:13:11.817Z,0.00
2019-04-28T00:14:11.955Z,0.00
2019-04-28T00:15:12.154Z,0.00
2019-04-28T00:16:11.670Z,0.00
2019-04-28T00:17:12.537Z,0.00
2019-04-28T00:18:11.993Z,0.00
2019-04-28T00:19:12.904Z,0.00
2019-04-28T00:20:12.774Z,0.00
2019-04-28T00:21:13.237Z,0.00
2019-04-28T00:22:12.376Z,0.00
2019-04-28T00:23:12.573Z,0.00
2019-04-28T00:24:12.811Z,0.00
2019-04-28T00:25:12.985Z,0.00
2019-04-28T00:26:13.165Z,0.00
2019-04-28T00:27:13.335Z,0.00
2019-04-28T00:28:13.529Z,0.00
2019-04-28T00:29:13.719Z,0.00
2019-04-28T00:30:13.894Z,0.00
2019-04-28T00:31:14.076Z,0.00
2019-04-28T00:32:14.292Z,0.00
2019-04-28T00:33:14.461Z,0.00
2019-04-28T00:34:14.716Z,0.00
2019-04-28T00:35:14.827Z,0.00
2019-04-28T00:36:15.031Z,0.00
2019-04-28T00:37:15.199Z,0.00
2019-04-28T00:38:15.392Z,0.00
2019-04-28T00:39:15.610Z,0.00
2019-04-28T00:40:15.818Z,0.00
2019-04-28T00:41:15.968Z,0.00
2019-04-28T00:42:17.137Z,0.00
2019-04-28T00:43:16.274Z,0.00
2019-04-28T00:44:16.441Z,0.00
2019-04-28T00:45:16.639Z,0.00
2019-04-28T00:46:16.792Z,0.00
2019-04-28T00:47:16.946Z,0.00
2019-04-28T00:48:17.113Z,0.00
2019-04-28T00:49:17.274Z,0.00
2019-04-28T00:50:17.468Z,0.00
2019-04-28T00:51:17.633Z,0.00
2019-04-28T00:52:17.798Z,0.00
2019-04-28T00:53:17.966Z,0.00
2019-04-28T00:54:18.126Z,0.00
2019-04-28T00:55:18.334Z,0.00
2019-04-28T00:56:18.510Z,0.00
2019-04-28T00:57:18.667Z,0.00
2019-04-28T00:58:20.856Z,0.00
2019-04-28T00:59:19.061Z,0.00
2019-04-28T01:00:19.211Z,0.00
2019-04-28T01:01:21.252Z,0.00
2019-04-28T01:02:21.136Z,0.00
2019-04-28T01:03:21.499Z,0.00
2019-04-28T01:04:21.848Z,0.00
2019-04-28T01:05:21.359Z,0.00
2019-04-28T01:06:22.205Z,0.00
2019-04-28T01:07:21.264Z,0.00
2019-04-28T01:08:21.594Z,0.00
2019-04-28T01:09:21.843Z,0.00
2019-04-28T01:10:21.908Z,0.00
2019-04-28T01:11:21.785Z,0.00
2019-04-28T01:12:21.492Z,0.00
2019-04-28T01:13:23.846Z,0.00
2019-04-28T01:14:21.678Z,0.00
2019-04-28T01:15:21.849Z,0.00
2019-04-28T01:16:22.045Z,0.00
2019-04-28T01:17:22.225Z,0.00
2019-04-28T01:18:22.369Z,0.00
2019-04-28T01:19:22.505Z,0.00
2019-04-28T01:20:22.678Z,0.00
2019-04-28T01:21:22.851Z,0.00
2019-04-28T01:22:23.025Z,0.00
2019-04-28T01:23:23.174Z,0.00
2019-04-28T01:24:23.323Z,0.00
2019-04-28T01:25:23.472Z,0.00
2019-04-28T01:26:23.618Z,0.00
2019-04-28T01:27:23.782Z,0.00
2019-04-28T01:28:23.936Z,0.00
2019-04-28T01:29:24.175Z,0.00
2019-04-28T01:30:24.318Z,0.00
2019-04-28T01:31:24.463Z,0.00
2019-04-28T01:32:24.650Z,0.00
2019-04-28T01:33:24.780Z,0.00
2019-04-28T01:34:25.027Z,0.00
2019-04-28T01:35:25.143Z,0.00
2019-04-28T01:36:25.383Z,0.00
2019-04-28T01:37:25.549Z,0.00
2019-04-28T01:38:25.687Z,0.00
2019-04-28T01:39:25.801Z,0.00
2019-04-28T01:40:25.937Z,0.00
2019-04-28T01:41:26.065Z,0.00
2019-04-28T01:42:26.235Z,0.00
2019-04-28T01:43:26.399Z,0.00
2019-04-28T01:44:26.574Z,0.00
2019-04-28T01:45:26.759Z,0.00
2019-04-28T01:46:26.945Z,0.00
2019-04-28T01:47:27.113Z,0.00
2019-04-28T01:48:27.263Z,0.00
2019-04-28T01:49:29.356Z,0.00
2019-04-28T01:50:27.625Z,0.00
2019-04-28T01:51:27.789Z,0.00
2019-04-28T01:52:27.935Z,0.00
2019-04-28T01:53:28.117Z,0.00
2019-04-28T01:54:30.073Z,0.00
2019-04-28T01:55:29.598Z,0.00
2019-04-28T01:56:30.359Z,0.00
2019-04-28T01:57:29.930Z,0.00
2019-04-28T01:58:29.672Z,0.00
2019-04-28T01:59:30.352Z,0.00
2019-04-28T02:00:30.224Z,0.00
2019-04-28T02:01:30.203Z,0.00
2019-04-28T02:02:30.600Z,0.00
2019-04-28T02:03:30.798Z,0.00
2019-04-28T02:04:32.510Z,0.00
2019-04-28T02:05:31.133Z,0.00
2019-04-28T02:06:30.269Z,0.00
2019-04-28T02:07:32.766Z,0.00
2019-04-28T02:08:30.580Z,0.00
2019-04-28T02:09:30.804Z,0.00
2019-04-28T02:10:30.989Z,0.00
2019-04-28T02:11:31.148Z,0.00
2019-04-28T02:12:31.336Z,0.00
2019-04-28T02:13:31.513Z,0.00
2019-04-28T02:14:31.698Z,0.00
2019-04-28T02:15:31.868Z,0.00
2019-04-28T02:16:32.060Z,0.00
2019-04-28T02:17:32.219Z,0.00
2019-04-28T02:18:32.382Z,0.00
2019-04-28T02:19:33.008Z,0.00
2019-04-28T02:20:33.694Z,0.00
2019-04-28T02:21:32.829Z,0.00
2019-04-28T02:22:32.960Z,0.00
2019-04-28T02:23:33.111Z,0.00
2019-04-28T02:24:33.298Z,0.00
2019-04-28T02:25:33.441Z,0.00
2019-04-28T02:26:33.612Z,0.00
2019-04-28T02:27:33.790Z,0.00
2019-04-28T02:28:34.000Z,0.00
2019-04-28T02:29:34.187Z,0.00
2019-04-28T02:30:45.329Z,0.00
2019-04-28T02:31:36.559Z,0.00
2019-04-28T02:32:34.802Z,0.00
2019-04-28T02:33:34.979Z,0.00
2019-04-28T02:34:35.142Z,0.00
2019-04-28T02:35:35.313Z,0.00
2019-04-28T02:36:35.517Z,0.00
2019-04-28T02:37:35.743Z,0.00
2019-04-28T02:38:35.907Z,0.00
2019-04-28T02:39:36.080Z,0.00
2019-04-28T02:40:36.269Z,0.00
2019-04-28T02:41:36.427Z,0.00
2019-04-28T02:42:36.590Z,0.00
2019-04-28T02:43:36.810Z,0.00
2019-04-28T02:44:36.962Z,0.00
2019-04-28T02:45:37.109Z,0.00
2019-04-28T02:46:37.296Z,0.00
2019-04-28T02:47:37.421Z,0.00
2019-04-28T02:48:37.580Z,0.00
2019-04-28T02:49:40.329Z,0.00
2019-04-28T02:50:37.932Z,0.00
2019-04-28T02:51:40.521Z,0.00
2019-04-28T02:52:38.249Z,0.00
2019-04-28T02:53:40.681Z,0.00
2019-04-28T02:54:40.405Z,0.00
2019-04-28T02:55:41.042Z,0.00
2019-04-28T02:56:43.411Z,0.00
2019-04-28T02:57:40.706Z,0.00
2019-04-28T02:58:41.499Z,0.00
2019-04-28T02:59:44.316Z,0.00
2019-04-28T03:00:42.906Z,0.00
2019-04-28T03:01:41.619Z,0.00
2019-04-28T03:02:41.629Z,0.00
2019-04-28T03:03:41.110Z,0.00
2019-04-28T03:04:40.993Z,0.00
2019-04-28T03:05:41.453Z,0.00
2019-04-28T03:06:40.898Z,0.00
2019-04-28T03:07:41.854Z,0.00
2019-04-28T03:08:41.042Z,0.00
2019-04-28T03:09:41.241Z,0.00
2019-04-28T03:10:41.421Z,0.00
2019-04-28T03:11:43.118Z,0.00
2019-04-28T03:12:41.786Z,0.00
2019-04-28T03:13:41.947Z,0.00
2019-04-28T03:14:43.977Z,0.00
2019-04-28T03:15:43.277Z,0.00
2019-04-28T03:16:42.398Z,0.00
2019-04-28T03:17:42.521Z,0.00
2019-04-28T03:18:42.683Z,0.00
2019-04-28T03:19:42.844Z,0.00
2019-04-28T03:20:43.003Z,0.00
2019-04-28T03:21:43.142Z,0.00
2019-04-28T03:22:43.279Z,0.00
2019-04-28T03:23:43.411Z,0.00
2019-04-28T03:24:43.551Z,0.00
2019-04-28T03:25:43.696Z,0.00
2019-04-28T03:26:43.833Z,0.00
2019-04-28T03:27:43.965Z,0.00
2019-04-28T03:28:44.137Z,0.00
2019-04-28T03:29:44.312Z,0.00
2019-04-28T03:30:44.498Z,0.00
2019-04-28T03:32:10.168Z,0.00
2019-04-28T03:32:53.719Z,0.00
2019-04-28T03:33:49.266Z,0.00
2019-04-28T03:34:47.232Z,0.00
2019-04-28T03:35:45.512Z,0.00
2019-04-28T03:36:45.662Z,0.00
2019-04-28T03:37:45.810Z,0.00
2019-04-28T03:38:46.951Z,0.00
2019-04-28T03:39:46.194Z,0.00
2019-04-28T03:40:46.383Z,0.00
2019-04-28T03:41:46.513Z,0.00
2019-04-28T03:42:46.667Z,0.00
2019-04-28T03:43:46.799Z,0.00
2019-04-28T03:44:46.933Z,0.00
2019-04-28T03:45:47.133Z,0.00
2019-04-28T03:46:47.264Z,0.00
2019-04-28T03:47:47.396Z,0.00
2019-04-28T03:48:47.560Z,0.00
2019-04-28T03:49:50.286Z,0.00
2019-04-28T03:50:47.858Z,0.00
2019-04-28T03:51:50.644Z,0.00
2019-04-28T03:52:51.185Z,0.00
2019-04-28T03:53:50.570Z,0.00
2019-04-28T03:54:50.877Z,0.00
2019-04-28T03:55:50.620Z,0.00
2019-04-28T03:56:50.197Z,0.00
2019-04-28T03:57:51.000Z,0.00
2019-04-28T03:58:50.430Z,0.00
2019-04-28T03:59:51.110Z,0.00
2019-04-28T04:00:50.906Z,0.00
2019-04-28T04:01:56.568Z,0.00
2019-04-28T04:02:52.055Z,0.00
2019-04-28T04:03:51.632Z,0.00
2019-04-28T04:04:52.751Z,0.00
2019-04-28T04:05:51.608Z,0.00
2019-04-28T04:06:50.951Z,0.00
2019-04-28T04:07:51.910Z,0.00
2019-04-28T04:08:51.087Z,0.00
2019-04-28T04:09:51.655Z,0.00
2019-04-28T04:10:52.377Z,0.00
2019-04-28T04:11:51.499Z,0.00
2019-04-28T04:12:51.705Z,0.00
2019-04-28T04:13:51.874Z,0.00
2019-04-28T04:14:52.040Z,0.00
2019-04-28T04:15:54.032Z,0.00
2019-04-28T04:16:53.407Z,0.00
2019-04-28T04:17:52.562Z,0.00
2019-04-28T04:18:53.803Z,0.00
2019-04-28T04:19:53.860Z,0.00
2019-04-28T04:20:52.991Z,0.00
2019-04-28T04:21:53.185Z,0.00
2019-04-28T04:22:53.384Z,0.00
2019-04-28T04:23:53.601Z,0.00
2019-04-28T04:24:53.781Z,0.00
2019-04-28T04:25:53.985Z,0.00
2019-04-28T04:26:54.148Z,5.62
2019-04-28T04:27:55.343Z,5.62
2019-04-28T04:28:54.510Z,5.62
2019-04-28T04:29:54.683Z,5.62
2019-04-28T04:30:54.833Z,5.62
2019-04-28T04:32:10.072Z,5.62
2019-04-28T04:32:57.216Z,5.62
2019-04-28T04:33:55.334Z,5.62
2019-04-28T04:34:55.488Z,5.62
2019-04-28T04:35:56.663Z,5.62
2019-04-28T04:36:55.813Z,5.62
2019-04-28T04:37:55.995Z,5.62
2019-04-28T04:38:56.199Z,11.25
2019-04-28T04:39:56.373Z,11.25
2019-04-28T04:40:56.562Z,11.25
2019-04-28T04:41:56.751Z,11.25
2019-04-28T04:42:56.887Z,11.25
2019-04-28T04:43:57.078Z,11.25
2019-04-28T04:44:57.224Z,16.88
2019-04-28T04:45:57.388Z,16.88
2019-04-28T04:46:57.550Z,16.88
2019-04-28T04:48:00.277Z,16.88
2019-04-28T04:49:00.381Z,16.88
2019-04-28T04:50:00.263Z,16.88
2019-04-28T04:51:00.676Z,16.88
2019-04-28T04:52:00.384Z,22.50
2019-04-28T04:52:58.525Z,22.50
2019-04-28T04:54:01.162Z,22.50
2019-04-28T04:55:01.044Z,22.50
2019-04-28T04:56:00.435Z,22.50
2019-04-28T04:57:00.213Z,28.12
2019-04-28T04:58:00.803Z,28.12
2019-04-28T04:59:02.794Z,28.12
2019-04-28T05:00:00.082Z,28.12
2019-04-28T05:01:00.955Z,28.12
2019-04-28T05:02:02.087Z,28.12
2019-04-28T05:03:00.806Z,28.12
2019-04-28T05:04:01.466Z,28.12
2019-04-28T05:05:00.603Z,33.75
2019-04-28T05:06:00.794Z,33.75
2019-04-28T05:07:00.928Z,33.75
2019-04-28T05:08:01.115Z,33.75
2019-04-28T05:09:01.260Z,33.75
2019-04-28T05:10:01.478Z,33.75
2019-04-28T05:11:01.621Z,33.75
2019-04-28T05:12:01.779Z,33.75
2019-04-28T05:13:01.936Z,33.75
2019-04-28T05:14:02.079Z,33.75
2019-04-28T05:15:02.218Z,33.75
2019-04-28T05:16:02.369Z,33.75
2019-04-28T05:17:02.509Z,33.75
2019-04-28T05:18:02.667Z,33.75
2019-04-28T05:19:02.804Z,33.75
2019-04-28T05:20:02.952Z,39.38
2019-04-28T05:21:03.086Z,39.38
2019-04-28T05:22:03.215Z,39.38
2019-04-28T05:23:03.361Z,39.38
2019-04-28T05:24:03.490Z,39.38
2019-04-28T05:25:03.645Z,45.00
2019-04-28T05:26:07.918Z,45.00
2019-04-28T05:27:05.900Z,45.00
2019-04-28T05:28:04.118Z,50.62
2019-04-28T05:29:04.268Z,50.62
2019-04-28T05:30:05.442Z,50.62
2019-04-28T05:31:05.520Z,50.62
2019-04-28T05:32:04.777Z,50.62
2019-04-28T05:33:04.888Z,56.25
2019-04-28T05:34:08.100Z,56.25
2019-04-28T05:35:05.277Z,56.25
2019-04-28T05:36:05.404Z,61.88
2019-04-28T05:37:05.516Z,61.88
2019-04-28T05:38:05.653Z,67.50
2019-04-28T05:39:05.824Z,67.50
2019-04-28T05:40:06.027Z,67.50
2019-04-28T05:41:06.222Z,67.50
2019-04-28T05:42:06.395Z,67.50
2019-04-28T05:43:06.639Z,73.12
2019-04-28T05:44:06.778Z,73.12
2019-04-28T05:45:06.902Z,73.12
2019-04-28T05:46:07.071Z,73.12
2019-04-28T05:47:07.220Z,78.75
2019-04-28T05:48:10.774Z,78.75
2019-04-28T05:49:10.192Z,78.75
2019-04-28T05:50:07.736Z,84.38
2019-04-28T05:51:09.416Z,84.38
2019-04-28T05:52:09.645Z,90.00
2019-04-28T05:53:08.338Z,90.00
2019-04-28T05:54:09.829Z,90.00
2019-04-28T05:55:10.113Z,95.62
2019-04-28T05:56:10.329Z,95.62
2019-04-28T05:57:10.674Z,101.25
2019-04-28T05:58:09.853Z,101.25
2019-04-28T05:59:10.269Z,106.88
2019-04-28T06:00:10.831Z,106.88
2019-04-28T06:01:10.743Z,112.50
2019-04-28T06:02:10.595Z,112.50
2019-04-28T06:03:11.098Z,123.75
2019-04-28T06:04:11.235Z,118.12
2019-04-28T06:05:10.430Z,123.75
2019-04-28T06:06:10.600Z,129.38
2019-04-28T06:07:10.840Z,129.38
2019-04-28T06:08:11.015Z,140.62
2019-04-28T06:09:11.191Z,135.00
2019-04-28T06:10:12.531Z,135.00
2019-04-28T06:11:12.527Z,135.00
2019-04-28T06:12:11.682Z,146.25
2019-04-28T06:13:11.838Z,151.88
2019-04-28T06:14:12.039Z,146.25
2019-04-28T06:15:12.250Z,151.88
2019-04-28T06:16:12.429Z,151.88
2019-04-28T06:17:12.583Z,151.88
2019-04-28T06:18:12.760Z,151.88
2019-04-28T06:19:12.986Z,157.50
2019-04-28T06:20:13.114Z,163.12
2019-04-28T06:21:13.242Z,157.50
2019-04-28T06:22:13.376Z,157.50
2019-04-28T06:23:13.668Z,163.12
2019-04-28T06:24:13.810Z,163.12
2019-04-28T06:25:13.949Z,163.12
2019-04-28T06:26:14.225Z,168.75
2019-04-28T06:27:14.240Z,174.38
2019-04-28T06:28:14.431Z,168.75
2019-04-28T06:29:14.583Z,168.75
2019-04-28T06:30:14.725Z,180.00
2019-04-28T06:31:14.863Z,168.75
2019-04-28T06:32:15.114Z,174.38
2019-04-28T06:33:15.206Z,185.62
2019-04-28T06:34:15.335Z,185.62
2019-04-28T06:35:15.501Z,185.62
2019-04-28T06:36:15.665Z,202.50
2019-04-28T06:37:15.880Z,196.88
2019-04-28T06:38:16.089Z,191.25
2019-04-28T06:39:16.267Z,196.88
2019-04-28T06:40:16.442Z,196.88
2019-04-28T06:41:16.601Z,196.88
2019-04-28T06:42:16.759Z,202.50
2019-04-28T06:43:16.925Z,196.88
2019-04-28T06:44:17.081Z,196.88
2019-04-28T06:45:17.241Z,191.25
2019-04-28T06:46:17.405Z,185.62
2019-04-28T06:47:17.563Z,180.00
2019-04-28T06:48:17.727Z,174.38
2019-04-28T06:49:17.910Z,168.75
2019-04-28T06:50:18.091Z,151.88
2019-04-28T06:51:18.220Z,140.62
2019-04-28T06:52:18.371Z,123.75
2019-04-28T06:53:18.537Z,118.12
2019-04-28T06:54:18.683Z,118.12
2019-04-28T06:55:18.837Z,112.50
2019-04-28T06:56:18.979Z,112.50
2019-04-28T06:57:19.125Z,112.50
2019-04-28T06:58:19.298Z,112.50
2019-04-28T06:59:19.471Z,112.50
2019-04-28T07:00:19.674Z,118.12
2019-04-28T07:01:19.806Z,123.75
2019-04-28T07:02:20.004Z,123.75
2019-04-28T07:03:23.316Z,129.38
2019-04-28T07:04:21.373Z,140.62
2019-04-28T07:05:20.539Z,146.25
2019-04-28T07:06:20.698Z,163.12
2019-04-28T07:07:20.892Z,174.38
2019-04-28T07:08:21.050Z,191.25
2019-04-28T07:09:21.210Z,208.12
2019-04-28T07:10:21.514Z,208.12
2019-04-28T07:11:21.578Z,219.38
2019-04-28T07:12:21.723Z,241.88
2019-04-28T07:13:21.900Z,247.50
2019-04-28T07:14:22.036Z,264.38
2019-04-28T07:15:22.236Z,275.62
2019-04-28T07:16:22.414Z,281.25
2019-04-28T07:17:22.578Z,281.25
2019-04-28T07:18:22.762Z,292.50
2019-04-28T07:19:22.899Z,298.12
2019-04-28T07:20:23.061Z,292.50
2019-04-28T07:21:23.197Z,303.75
2019-04-28T07:22:23.337Z,298.12
2019-04-28T07:23:23.490Z,275.62
2019-04-28T07:24:23.684Z,281.25
2019-04-28T07:25:23.860Z,286.88
2019-04-28T07:26:24.018Z,292.50
2019-04-28T07:27:24.192Z,303.75
2019-04-28T07:28:24.314Z,326.25
2019-04-28T07:29:24.453Z,343.12
2019-04-28T07:30:24.632Z,343.12
2019-04-28T07:31:24.859Z,354.38
2019-04-28T07:32:25.066Z,354.38
2019-04-28T07:33:35.586Z,360.00
2019-04-28T07:34:27.336Z,365.62
2019-04-28T07:35:26.548Z,376.88
2019-04-28T07:36:26.870Z,365.62
2019-04-28T07:37:25.988Z,365.62
2019-04-28T07:38:26.163Z,376.88
2019-04-28T07:39:26.307Z,365.62
2019-04-28T07:40:26.494Z,360.00
2019-04-28T07:41:26.697Z,348.75
2019-04-28T07:42:26.862Z,348.75
2019-04-28T07:43:27.065Z,337.50
2019-04-28T07:44:27.183Z,337.50
2019-04-28T07:45:27.398Z,320.62
2019-04-28T07:46:27.569Z,315.00
2019-04-28T07:47:27.759Z,315.00
2019-04-28T07:48:27.947Z,309.38
2019-04-28T07:49:28.110Z,303.75
2019-04-28T07:50:28.261Z,309.38
2019-04-28T07:51:28.468Z,309.38
2019-04-28T07:52:28.616Z,326.25
2019-04-28T07:53:28.811Z,298.12
2019-04-28T07:54:28.973Z,303.75
2019-04-28T07:55:29.135Z,309.38
2019-04-28T07:56:29.285Z,315.00
2019-04-28T07:57:29.443Z,315.00
2019-04-28T07:58:29.629Z,326.25
2019-04-28T07:59:29.829Z,315.00
2019-04-28T08:00:30.010Z,337.50
2019-04-28T08:01:30.183Z,337.50
2019-04-28T08:02:30.334Z,337.50
2019-04-28T08:03:30.546Z,331.88
2019-04-28T08:04:30.599Z,331.88
2019-04-28T08:05:30.773Z,337.50
2019-04-28T08:06:30.954Z,365.62
2019-04-28T08:07:31.102Z,360.00
2019-04-28T08:08:31.273Z,371.25
2019-04-28T08:09:31.545Z,371.25
2019-04-28T08:10:31.611Z,376.88
2019-04-28T08:11:31.791Z,371.25
2019-04-28T08:12:31.963Z,365.62
2019-04-28T08:13:32.126Z,365.62
2019-04-28T08:14:32.294Z,337.50
2019-04-28T08:15:32.466Z,331.88
2019-04-28T08:16:32.609Z,337.50
2019-04-28T08:17:32.767Z,348.75
2019-04-28T08:18:32.946Z,360.00
2019-04-28T08:19:33.088Z,360.00
2019-04-28T08:20:34.071Z,343.12
2019-04-28T08:21:33.471Z,354.38
2019-04-28T08:22:33.606Z,343.12
2019-04-28T08:23:46.265Z,343.12
2019-04-28T08:24:35.016Z,337.50
2019-04-28T08:25:34.162Z,337.50
2019-04-28T08:26:36.296Z,320.62
2019-04-28T08:27:34.528Z,315.00
2019-04-28T08:28:34.673Z,315.00
2019-04-28T08:29:34.858Z,337.50
2019-04-28T08:30:35.020Z,326.25
2019-04-28T08:31:35.182Z,331.88
2019-04-28T08:32:35.343Z,337.50
2019-04-28T08:33:35.512Z,331.88
2019-04-28T08:34:35.732Z,348.75
2019-04-28T08:35:35.915Z,354.38
2019-04-28T08:36:36.083Z,354.38
2019-04-28T08:37:36.341Z,365.62
2019-04-28T08:38:36.489Z,365.62
2019-04-28T08:39:36.640Z,365.62
2019-04-28T08:40:36.793Z,365.62
2019-04-28T08:41:36.972Z,376.88
2019-04-28T08:42:37.153Z,376.88
2019-04-28T08:43:37.304Z,376.88
2019-04-28T08:44:37.475Z,382.50
2019-04-28T08:45:37.651Z,388.12
2019-04-28T08:46:37.793Z,405.00
2019-04-28T08:47:37.969Z,416.25
2019-04-28T08:48:38.126Z,410.62
2019-04-28T08:49:38.271Z,416.25
2019-04-28T08:50:38.463Z,416.25
2019-04-28T08:51:38.609Z,427.50
2019-04-28T08:52:38.785Z,427.50
2019-04-28T08:53:38.944Z,438.75
2019-04-28T08:54:39.147Z,433.12
2019-04-28T08:55:39.313Z,450.00
2019-04-28T08:56:39.479Z,433.12
2019-04-28T08:57:40.666Z,450.00
2019-04-28T08:58:39.810Z,410.62
2019-04-28T08:59:39.956Z,416.25
2019-04-28T09:00:40.133Z,410.62
2019-04-28T09:01:40.319Z,410.62
2019-04-28T09:02:40.471Z,433.12
2019-04-28T09:03:40.641Z,421.88
2019-04-28T09:04:40.807Z,433.12
2019-04-28T09:05:40.962Z,455.62
2019-04-28T09:06:41.098Z,461.25
2019-04-28T09:07:41.285Z,478.12
2019-04-28T09:08:41.449Z,511.88
2019-04-28T09:09:41.596Z,562.50
2019-04-28T09:10:41.760Z,630.00
2019-04-28T09:11:41.903Z,686.25
2019-04-28T09:12:42.100Z,663.75
2019-04-28T09:13:43.861Z,680.62
2019-04-28T09:14:43.384Z,781.88
2019-04-28T09:15:42.618Z,731.25
2019-04-28T09:16:42.756Z,646.88
2019-04-28T09:17:42.949Z,624.38
2019-04-28T09:18:43.081Z,545.62
2019-04-28T09:19:43.264Z,556.88
2019-04-28T09:20:44.439Z,562.50
2019-04-28T09:21:43.564Z,646.88
2019-04-28T09:22:43.727Z,759.38
2019-04-28T09:23:43.862Z,832.50
2019-04-28T09:24:44.037Z,708.75
2019-04-28T09:25:44.223Z,781.88
2019-04-28T09:26:44.440Z,787.50
2019-04-28T09:27:44.604Z,781.88
2019-04-28T09:28:44.775Z,911.25
2019-04-28T09:29:44.977Z,911.25
2019-04-28T09:30:45.153Z,742.50
2019-04-28T09:31:45.329Z,753.75
2019-04-28T09:32:45.468Z,658.12
2019-04-28T09:33:45.620Z,658.12
2019-04-28T09:34:45.823Z,607.50
2019-04-28T09:35:45.996Z,607.50
2019-04-28T09:36:46.156Z,646.88
2019-04-28T09:37:46.348Z,596.25
2019-04-28T09:38:46.543Z,669.38
2019-04-28T09:39:46.746Z,562.50
2019-04-28T09:40:46.922Z,601.88
2019-04-28T09:41:47.144Z,579.38
2019-04-28T09:42:47.322Z,585.00
2019-04-28T09:43:47.471Z,641.25
2019-04-28T09:44:48.633Z,731.25
2019-04-28T09:45:47.776Z,804.38
2019-04-28T09:46:47.935Z,860.62
2019-04-28T09:47:48.103Z,815.62
2019-04-28T09:48:48.273Z,804.38
2019-04-28T09:49:48.447Z,793.12
2019-04-28T09:50:48.641Z,810.00
2019-04-28T09:51:48.790Z,888.75
2019-04-28T09:52:49.019Z,888.75
2019-04-28T09:53:49.104Z,990.00
2019-04-28T09:54:49.297Z,1456.88
2019-04-28T09:55:49.477Z,1096.88
2019-04-28T09:56:56.373Z,1096.88
2019-04-28T09:57:54.621Z,973.12
2019-04-28T09:58:49.894Z,995.62
2019-04-28T09:59:50.075Z,1074.38
2019-04-28T10:00:50.258Z,1125.00
2019-04-28T10:01:50.420Z,1035.00
2019-04-28T10:02:50.603Z,1006.88
2019-04-28T10:03:50.782Z,871.88
2019-04-28T10:04:50.946Z,860.62
2019-04-28T10:05:51.113Z,883.12
2019-04-28T10:06:51.289Z,860.62
2019-04-28T10:07:51.513Z,883.12
2019-04-28T10:08:52.682Z,1001.25
2019-04-28T10:09:51.925Z,990.00
2019-04-28T10:10:51.926Z,945.00
2019-04-28T10:11:52.069Z,973.12
2019-04-28T10:12:52.233Z,821.25
2019-04-28T10:13:53.426Z,1676.25
2019-04-28T10:14:52.558Z,1755.00
2019-04-28T10:15:52.821Z,697.50
2019-04-28T10:16:52.967Z,646.88
2019-04-28T10:17:53.117Z,646.88
2019-04-28T10:18:53.321Z,736.88
2019-04-28T10:19:53.517Z,1783.12
2019-04-28T10:20:53.686Z,2053.12
2019-04-28T10:21:53.913Z,2283.75
2019-04-28T10:22:54.083Z,1490.62
2019-04-28T10:23:54.324Z,995.62
2019-04-28T10:24:54.515Z,1001.25
2019-04-28T10:25:54.688Z,855.00
2019-04-28T10:26:54.898Z,798.75
2019-04-28T10:27:55.071Z,1006.88
2019-04-28T10:28:56.267Z,1096.88
2019-04-28T10:29:55.420Z,1074.38
2019-04-28T10:30:55.583Z,826.88
2019-04-28T10:31:55.812Z,995.62
2019-04-28T10:32:55.985Z,2390.62
2019-04-28T10:33:56.167Z,3166.88
2019-04-28T10:34:56.424Z,1906.88
2019-04-28T10:35:56.581Z,1597.50
2019-04-28T10:36:56.738Z,1018.12
2019-04-28T10:37:56.895Z,1383.75
2019-04-28T10:38:57.047Z,1698.75
2019-04-28T10:39:57.285Z,1946.25
2019-04-28T10:40:57.460Z,1276.88
2019-04-28T10:41:57.698Z,1299.38
2019-04-28T10:42:57.878Z,838.12
2019-04-28T10:43:58.037Z,1417.50
2019-04-28T10:44:58.230Z,3616.88
2019-04-28T10:45:58.414Z,3043.12
2019-04-28T10:46:58.599Z,1220.62
2019-04-28T10:47:58.786Z,1355.62
2019-04-28T10:48:58.948Z,3465.00
2019-04-28T10:49:59.161Z,1125.00
2019-04-28T10:51:01.220Z,2986.88
2019-04-28T10:52:00.460Z,3875.62
2019-04-28T10:52:59.618Z,2030.62
2019-04-28T10:53:59.795Z,1462.50
2019-04-28T10:54:59.996Z,1057.50
2019-04-28T10:56:00.218Z,3633.75
2019-04-28T10:57:00.420Z,1006.88
2019-04-28T10:58:00.616Z,3279.38
2019-04-28T10:59:00.807Z,3431.25
2019-04-28T11:00:01.087Z,3414.38
2019-04-28T11:01:01.648Z,3211.88
2019-04-28T11:02:01.344Z,2396.25
2019-04-28T11:03:01.546Z,950.62
2019-04-28T11:04:01.723Z,3217.50
2019-04-28T11:05:08.059Z,3307.50
2019-04-28T11:06:04.114Z,2013.75
2019-04-28T11:07:02.301Z,658.12
2019-04-28T11:08:02.511Z,759.38
2019-04-28T11:09:02.691Z,3195.00
2019-04-28T11:10:02.861Z,3240.00
2019-04-28T11:11:03.074Z,3318.75
2019-04-28T11:12:03.274Z,1811.25
2019-04-28T11:13:03.471Z,1631.25
2019-04-28T11:14:03.651Z,1361.25
2019-04-28T11:15:03.830Z,3054.38
2019-04-28T11:16:04.042Z,3645.00
2019-04-28T11:17:04.227Z,1620.00
2019-04-28T11:18:04.440Z,3656.25
2019-04-28T11:19:04.633Z,2700.00
2019-04-28T11:20:04.834Z,3768.75
2019-04-28T11:21:05.017Z,2728.12
2019-04-28T11:22:05.160Z,703.12
2019-04-28T11:23:05.296Z,714.38
2019-04-28T11:24:05.447Z,3622.50
2019-04-28T11:25:05.650Z,3740.62
2019-04-28T11:26:05.830Z,3465.00
2019-04-28T11:27:05.966Z,579.38
2019-04-28T11:28:06.127Z,551.25
2019-04-28T11:29:06.274Z,489.38
2019-04-28T11:30:06.440Z,444.38
2019-04-28T11:31:06.581Z,399.38
2019-04-28T11:32:06.720Z,360.00
2019-04-28T11:33:06.915Z,343.12
2019-04-28T11:34:08.089Z,315.00
2019-04-28T11:35:07.206Z,281.25
2019-04-28T11:36:07.363Z,275.62
2019-04-28T11:37:07.535Z,253.12
2019-04-28T11:38:07.683Z,241.88
2019-04-28T11:39:07.803Z,236.25
2019-04-28T11:40:07.952Z,230.62
2019-04-28T11:41:08.089Z,225.00
2019-04-28T11:42:08.305Z,241.88
2019-04-28T11:43:08.466Z,208.12
2019-04-28T11:44:08.637Z,202.50
2019-04-28T11:45:08.800Z,202.50
2019-04-28T11:46:08.955Z,213.75
2019-04-28T11:47:09.173Z,236.25
2019-04-28T11:48:09.246Z,258.75
2019-04-28T11:49:09.460Z,270.00
2019-04-28T11:50:09.624Z,281.25
2019-04-28T11:51:10.833Z,264.38
2019-04-28T11:52:09.974Z,258.75
2019-04-28T11:53:10.181Z,258.75
2019-04-28T11:54:10.341Z,230.62
2019-04-28T11:55:10.604Z,230.62
2019-04-28T11:56:10.755Z,230.62
2019-04-28T11:57:10.942Z,225.00
2019-04-28T11:58:11.123Z,230.62
2019-04-28T11:59:11.305Z,236.25
2019-04-28T12:00:11.475Z,230.62
2019-04-28T12:01:11.686Z,230.62
2019-04-28T12:02:11.829Z,236.25
2019-04-28T12:03:12.044Z,236.25
2019-04-28T12:04:12.223Z,236.25
2019-04-28T12:05:12.400Z,241.88
2019-04-28T12:06:12.563Z,236.25
2019-04-28T12:07:12.734Z,225.00
2019-04-28T12:08:12.951Z,230.62
2019-04-28T12:09:13.132Z,225.00
2019-04-28T12:10:13.307Z,225.00
2019-04-28T12:11:13.457Z,230.62
2019-04-28T12:12:13.627Z,230.62
2019-04-28T12:13:13.806Z,230.62
2019-04-28T12:14:13.979Z,236.25
2019-04-28T12:15:14.118Z,236.25
2019-04-28T12:16:14.319Z,236.25
2019-04-28T12:17:14.716Z,236.25
2019-04-28T12:18:15.668Z,236.25
2019-04-28T12:19:14.834Z,230.62
2019-04-28T12:20:15.010Z,225.00
2019-04-28T12:21:15.175Z,219.38
2019-04-28T12:22:15.333Z,219.38
2019-04-28T12:23:15.569Z,202.50
2019-04-28T12:24:15.784Z,202.50
2019-04-28T12:25:15.958Z,191.25
2019-04-28T12:26:16.174Z,180.00
2019-04-28T12:27:16.338Z,180.00
2019-04-28T12:28:16.488Z,168.75
2019-04-28T12:29:16.724Z,157.50
2019-04-28T12:30:16.904Z,151.88
2019-04-28T12:31:17.072Z,151.88
2019-04-28T12:32:17.235Z,151.88
2019-04-28T12:33:17.398Z,146.25
2019-04-28T12:34:17.578Z,146.25
2019-04-28T12:35:18.521Z,140.62
2019-04-28T12:36:19.624Z,140.62
2019-04-28T12:37:18.105Z,146.25
2019-04-28T12:38:18.281Z,140.62
2019-04-28T12:39:18.523Z,135.00
2019-04-28T12:40:18.690Z,135.00
2019-04-28T12:41:18.817Z,129.38
2019-04-28T12:42:18.965Z,135.00
2019-04-28T12:43:19.171Z,135.00
2019-04-28T12:44:19.366Z,129.38
2019-04-28T12:45:19.511Z,118.12
2019-04-28T12:46:19.660Z,118.12
2019-04-28T12:47:19.810Z,123.75
2019-04-28T12:48:19.947Z,118.12